sensor_id;sensor_type;location;lat;lon;timestamp;P1;durP1;ratioP1;P2;durP2;ratioP2
44126;SDS011;29786;50.798;7.302;2023-03-14T00:01:12;4;;;1.5;;
44126;SDS011;29786;50.798;7.302;2023-03-14T00:03:39;4.2;;;1.6;;
44126;SDS011;29786;50.798;7.302;2023-03-14T00:04:54;4.3;;;1.7;;
44126;SDS011;29786;50.798;7.302;2023-03-14T00:06:08;5.3;;;1.5;;
44126;SDS011;29786;50.798;7.302;2023-03-14T00:07:22;5.1;;;1.5;;
44126;SDS011;29786;50.798;7.302;2023-03-14T00:09:50;7.5;;;1.9;;
44126;SDS011;29786;50.798;7.302;2023-03-14T00:11:05;6.7;;;1.5;;
44126;SDS011;29786;50.798;7.302;2023-03-14T00:12:18;4.4;;;1.6;;
44126;SDS011;29786;50.798;7.302;2023-03-14T00:14:46;4.8;;;1.7;;
44126;SDS011;29786;50.798;7.302;2023-03-14T00:16:01;6.3;;;2.2;;
44126;SDS011;29786;50.798;7.302;2023-03-14T00:17:15;5.4;;;1.6;;
44126;SDS011;29786;50.798;7.302;2023-03-14T00:19:43;4.8;;;2.2;;
44126;SDS011;29786;50.798;7.302;2023-03-14T00:20:58;5.6;;;3.2;;
44126;SDS011;29786;50.798;7.302;2023-03-14T00:22:11;4.5;;;2.7;;
44126;SDS011;29786;50.798;7.302;2023-03-14T00:24:39;5.9;;;3.2;;
44126;SDS011;29786;50.798;7.302;2023-03-14T00:25:57;8.4;;;2.6;;
44126;SDS011;29786;50.798;7.302;2023-03-14T00:27:08;4.5;;;2.6;;
44126;SDS011;29786;50.798;7.302;2023-03-14T00:28:22;6.8;;;3;;
44126;SDS011;29786;50.798;7.302;2023-03-14T00:30:50;5.1;;;1.9;;
44126;SDS011;29786;50.798;7.302;2023-03-14T00:32:04;5.6;;;2.3;;
44126;SDS011;29786;50.798;7.302;2023-03-14T00:33:18;4.5;;;2;;
44126;SDS011;29786;50.798;7.302;2023-03-14T00:35:55;6.1;;;1.9;;
44126;SDS011;29786;50.798;7.302;2023-03-14T00:37:01;4.9;;;1.7;;
44126;SDS011;29786;50.798;7.302;2023-03-14T00:38:15;6.7;;;1.6;;
44126;SDS011;29786;50.798;7.302;2023-03-14T00:40:43;6.2;;;1.9;;
44126;SDS011;29786;50.798;7.302;2023-03-14T00:41:57;8.5;;;2.5;;
44126;SDS011;29786;50.798;7.302;2023-03-14T00:43:11;7.9;;;2.4;;
44126;SDS011;29786;50.798;7.302;2023-03-14T00:45:40;3.9;;;1.5;;
44126;SDS011;29786;50.798;7.302;2023-03-14T00:46:54;6.7;;;2;;
44126;SDS011;29786;50.798;7.302;2023-03-14T00:48:08;7.9;;;1.7;;
44126;SDS011;29786;50.798;7.302;2023-03-14T00:49:22;7;;;1.9;;
44126;SDS011;29786;50.798;7.302;2023-03-14T00:51:50;4.2;;;1.9;;
44126;SDS011;29786;50.798;7.302;2023-03-14T00:53:05;5.5;;;1.7;;
44126;SDS011;29786;50.798;7.302;2023-03-14T00:54:20;3.4;;;1.4;;
44126;SDS011;29786;50.798;7.302;2023-03-14T00:56:47;7.2;;;1.8;;
44126;SDS011;29786;50.798;7.302;2023-03-14T00:58:01;6.1;;;1.7;;
44126;SDS011;29786;50.798;7.302;2023-03-14T00:59:15;5.9;;;1.9;;
44126;SDS011;29786;50.798;7.302;2023-03-14T01:01:43;5.5;;;1.9;;
44126;SDS011;29786;50.798;7.302;2023-03-14T01:02:58;6.7;;;1.7;;
44126;SDS011;29786;50.798;7.302;2023-03-14T01:04:12;3.7;;;1.6;;
44126;SDS011;29786;50.798;7.302;2023-03-14T01:06:40;5.5;;;1.7;;
44126;SDS011;29786;50.798;7.302;2023-03-14T01:07:54;5.3;;;1.5;;
44126;SDS011;29786;50.798;7.302;2023-03-14T01:09:08;5;;;1.7;;
44126;SDS011;29786;50.798;7.302;2023-03-14T01:10:23;5.7;;;1.6;;
44126;SDS011;29786;50.798;7.302;2023-03-14T01:12:51;5.9;;;1.8;;
44126;SDS011;29786;50.798;7.302;2023-03-14T01:14:05;6.2;;;1.8;;
44126;SDS011;29786;50.798;7.302;2023-03-14T01:15:19;7.3;;;2;;
44126;SDS011;29786;50.798;7.302;2023-03-14T01:17:47;9.9;;;2.5;;
44126;SDS011;29786;50.798;7.302;2023-03-14T01:19:02;6.3;;;1.8;;
44126;SDS011;29786;50.798;7.302;2023-03-14T01:20:16;6.5;;;1.5;;
44126;SDS011;29786;50.798;7.302;2023-03-14T01:22:44;6.1;;;2;;
44126;SDS011;29786;50.798;7.302;2023-03-14T01:23:58;4.5;;;1.7;;
44126;SDS011;29786;50.798;7.302;2023-03-14T01:25:13;9.3;;;2.1;;
44126;SDS011;29786;50.798;7.302;2023-03-14T01:27:40;6.7;;;1.9;;
44126;SDS011;29786;50.798;7.302;2023-03-14T01:28:55;8.1;;;2.1;;
44126;SDS011;29786;50.798;7.302;2023-03-14T01:30:09;8.8;;;1.9;;
44126;SDS011;29786;50.798;7.302;2023-03-14T01:31:23;5.9;;;2.1;;
44126;SDS011;29786;50.798;7.302;2023-03-14T01:33:51;3.9;;;1.5;;
44126;SDS011;29786;50.798;7.302;2023-03-14T01:35:05;5.8;;;1.8;;
44126;SDS011;29786;50.798;7.302;2023-03-14T01:36:19;9.5;;;1.9;;
44126;SDS011;29786;50.798;7.302;2023-03-14T01:38:48;6.5;;;1.7;;
44126;SDS011;29786;50.798;7.302;2023-03-14T01:40:02;8.1;;;1.9;;
44126;SDS011;29786;50.798;7.302;2023-03-14T01:41:18;6;;;1.8;;
44126;SDS011;29786;50.798;7.302;2023-03-14T01:43:44;6.6;;;1.8;;
44126;SDS011;29786;50.798;7.302;2023-03-14T01:44:59;6.5;;;1.8;;
44126;SDS011;29786;50.798;7.302;2023-03-14T01:46:16;4.8;;;1.9;;
44126;SDS011;29786;50.798;7.302;2023-03-14T01:48:42;7;;;2;;
44126;SDS011;29786;50.798;7.302;2023-03-14T01:49:57;4.4;;;1.7;;
44126;SDS011;29786;50.798;7.302;2023-03-14T01:51:10;4.3;;;1.8;;
44126;SDS011;29786;50.798;7.302;2023-03-14T01:52:25;6.1;;;1.9;;
44126;SDS011;29786;50.798;7.302;2023-03-14T01:54:54;7.8;;;1.9;;
44126;SDS011;29786;50.798;7.302;2023-03-14T01:56:05;7;;;2.1;;
44126;SDS011;29786;50.798;7.302;2023-03-14T01:57:20;6.4;;;2;;
44126;SDS011;29786;50.798;7.302;2023-03-14T01:59:57;5.1;;;1.8;;
44126;SDS011;29786;50.798;7.302;2023-03-14T02:01:02;6.2;;;2.3;;
44126;SDS011;29786;50.798;7.302;2023-03-14T02:02:16;10.6;;;3.2;;
44126;SDS011;29786;50.798;7.302;2023-03-14T02:04:44;6.3;;;1.9;;
44126;SDS011;29786;50.798;7.302;2023-03-14T02:05:59;5.7;;;2;;
44126;SDS011;29786;50.798;7.302;2023-03-14T02:07:22;6.7;;;3.9;;
44126;SDS011;29786;50.798;7.302;2023-03-14T02:09:41;8.1;;;2.1;;
44126;SDS011;29786;50.798;7.302;2023-03-14T02:10:55;8;;;2.2;;
44126;SDS011;29786;50.798;7.302;2023-03-14T02:12:09;5.4;;;1.7;;
44126;SDS011;29786;50.798;7.302;2023-03-14T02:13:23;7.9;;;2.8;;
44126;SDS011;29786;50.798;7.302;2023-03-14T02:15:51;7.3;;;2.1;;
44126;SDS011;29786;50.798;7.302;2023-03-14T02:17:06;6.7;;;2.1;;
44126;SDS011;29786;50.798;7.302;2023-03-14T02:18:20;8.9;;;3.4;;
44126;SDS011;29786;50.798;7.302;2023-03-14T02:20:59;6.9;;;2.1;;
44126;SDS011;29786;50.798;7.302;2023-03-14T02:22:05;5.7;;;2;;
44126;SDS011;29786;50.798;7.302;2023-03-14T02:23:17;7.8;;;1.9;;
44126;SDS011;29786;50.798;7.302;2023-03-14T02:25:46;5.9;;;1.8;;
44126;SDS011;29786;50.798;7.302;2023-03-14T02:27:04;9.4;;;2.1;;
44126;SDS011;29786;50.798;7.302;2023-03-14T02:28:13;7.1;;;1.9;;
44126;SDS011;29786;50.798;7.302;2023-03-14T02:30:41;7.1;;;2.1;;
44126;SDS011;29786;50.798;7.302;2023-03-14T02:31:55;5.9;;;1.8;;
44126;SDS011;29786;50.798;7.302;2023-03-14T02:33:10;6.2;;;2;;
44126;SDS011;29786;50.798;7.302;2023-03-14T02:34:23;7.3;;;2.1;;
44126;SDS011;29786;50.798;7.302;2023-03-14T02:36:52;6.9;;;2.5;;
44126;SDS011;29786;50.798;7.302;2023-03-14T02:39:21;5.4;;;1.5;;
44126;SDS011;29786;50.798;7.302;2023-03-14T02:41:48;7.9;;;2.1;;
44126;SDS011;29786;50.798;7.302;2023-03-14T02:43:02;8.6;;;2.4;;
44126;SDS011;29786;50.798;7.302;2023-03-14T02:44:17;7.3;;;2;;
44126;SDS011;29786;50.798;7.302;2023-03-14T02:46:45;5.9;;;1.8;;
44126;SDS011;29786;50.798;7.302;2023-03-14T02:48:02;5.1;;;2.2;;
44126;SDS011;29786;50.798;7.302;2023-03-14T02:49:14;6.1;;;2.4;;
44126;SDS011;29786;50.798;7.302;2023-03-14T02:51:42;7.4;;;2.2;;
44126;SDS011;29786;50.798;7.302;2023-03-14T02:52:55;10.1;;;2.5;;
44126;SDS011;29786;50.798;7.302;2023-03-14T02:54:10;9.8;;;2.6;;
44126;SDS011;29786;50.798;7.302;2023-03-14T02:55:24;9.2;;;2.7;;
44126;SDS011;29786;50.798;7.302;2023-03-14T02:57:52;8.3;;;2.4;;
44126;SDS011;29786;50.798;7.302;2023-03-14T02:59:06;6.4;;;1.9;;
44126;SDS011;29786;50.798;7.302;2023-03-14T03:00:20;4.8;;;1.9;;
44126;SDS011;29786;50.798;7.302;2023-03-14T03:02:48;8.9;;;2.3;;
44126;SDS011;29786;50.798;7.302;2023-03-14T03:04:03;4.8;;;2;;
44126;SDS011;29786;50.798;7.302;2023-03-14T03:07:45;7.2;;;2.5;;
44126;SDS011;29786;50.798;7.302;2023-03-14T03:08:59;5.2;;;2;;
44126;SDS011;29786;50.798;7.302;2023-03-14T03:10:13;7;;;2.6;;
44126;SDS011;29786;50.798;7.302;2023-03-14T03:12:42;7.1;;;2.2;;
44126;SDS011;29786;50.798;7.302;2023-03-14T03:13:56;7.1;;;2.1;;
44126;SDS011;29786;50.798;7.302;2023-03-14T03:15:10;9.6;;;2.2;;
44126;SDS011;29786;50.798;7.302;2023-03-14T03:17:38;7;;;2.4;;
44126;SDS011;29786;50.798;7.302;2023-03-14T03:18:52;8.5;;;2.3;;
44126;SDS011;29786;50.798;7.302;2023-03-14T03:20:07;7.2;;;2.6;;
44126;SDS011;29786;50.798;7.302;2023-03-14T03:21:20;8.8;;;2.6;;
44126;SDS011;29786;50.798;7.302;2023-03-14T03:23:49;10.1;;;2.9;;
44126;SDS011;29786;50.798;7.302;2023-03-14T03:25:04;6.9;;;2.2;;
44126;SDS011;29786;50.798;7.302;2023-03-14T03:26:17;8.5;;;2.3;;
44126;SDS011;29786;50.798;7.302;2023-03-14T03:28:45;6.8;;;2.2;;
44126;SDS011;29786;50.798;7.302;2023-03-14T03:29:59;7;;;2.1;;
44126;SDS011;29786;50.798;7.302;2023-03-14T03:31:14;7.7;;;2.5;;
44126;SDS011;29786;50.798;7.302;2023-03-14T03:33:42;6.4;;;1.9;;
44126;SDS011;29786;50.798;7.302;2023-03-14T03:34:56;8.2;;;2.1;;
44126;SDS011;29786;50.798;7.302;2023-03-14T03:36:10;11.4;;;2.3;;
44126;SDS011;29786;50.798;7.302;2023-03-14T03:38:38;6.8;;;2.2;;
44126;SDS011;29786;50.798;7.302;2023-03-14T03:39:52;7.7;;;2.4;;
44126;SDS011;29786;50.798;7.302;2023-03-14T03:41:07;8.7;;;2.3;;
44126;SDS011;29786;50.798;7.302;2023-03-14T03:42:21;10.4;;;2.3;;
44126;SDS011;29786;50.798;7.302;2023-03-14T03:44:49;9.7;;;2.1;;
44126;SDS011;29786;50.798;7.302;2023-03-14T03:46:04;8.3;;;3.2;;
44126;SDS011;29786;50.798;7.302;2023-03-14T03:47:17;10.3;;;2.7;;
44126;SDS011;29786;50.798;7.302;2023-03-14T03:49:46;9.3;;;1.9;;
44126;SDS011;29786;50.798;7.302;2023-03-14T03:51:00;7.2;;;2.3;;
44126;SDS011;29786;50.798;7.302;2023-03-14T03:52:14;8.4;;;2.3;;
44126;SDS011;29786;50.798;7.302;2023-03-14T03:54:42;8;;;2;;
44126;SDS011;29786;50.798;7.302;2023-03-14T03:55:56;6.9;;;2;;
44126;SDS011;29786;50.798;7.302;2023-03-14T03:57:10;5.5;;;2;;
44126;SDS011;29786;50.798;7.302;2023-03-14T03:59:39;7.2;;;1.8;;
44126;SDS011;29786;50.798;7.302;2023-03-14T04:00:53;5.8;;;2.5;;
44126;SDS011;29786;50.798;7.302;2023-03-14T04:02:07;6.4;;;1.6;;
44126;SDS011;29786;50.798;7.302;2023-03-14T04:03:21;6.9;;;1.8;;
44126;SDS011;29786;50.798;7.302;2023-03-14T04:06:06;6.7;;;1.7;;
44126;SDS011;29786;50.798;7.302;2023-03-14T04:07:03;7.9;;;1.8;;
44126;SDS011;29786;50.798;7.302;2023-03-14T04:08:18;7.5;;;1.9;;
44126;SDS011;29786;50.798;7.302;2023-03-14T04:10:46;5.8;;;1.6;;
44126;SDS011;29786;50.798;7.302;2023-03-14T04:12:00;6.3;;;1.8;;
44126;SDS011;29786;50.798;7.302;2023-03-14T04:13:14;5.2;;;2;;
44126;SDS011;29786;50.798;7.302;2023-03-14T04:15:42;5.1;;;1.7;;
44126;SDS011;29786;50.798;7.302;2023-03-14T04:16:56;6.3;;;2.4;;
44126;SDS011;29786;50.798;7.302;2023-03-14T04:18:11;4.9;;;1.6;;
44126;SDS011;29786;50.798;7.302;2023-03-14T04:19:25;3.5;;;1.5;;
44126;SDS011;29786;50.798;7.302;2023-03-14T04:20:39;6.7;;;2.3;;
44126;SDS011;29786;50.798;7.302;2023-03-14T04:21:53;3.7;;;1.7;;
44126;SDS011;29786;50.798;7.302;2023-03-14T04:23:07;5.1;;;1.7;;
44126;SDS011;29786;50.798;7.302;2023-03-14T04:24:21;5.7;;;1.5;;
44126;SDS011;29786;50.798;7.302;2023-03-14T04:26:50;5.9;;;2.4;;
44126;SDS011;29786;50.798;7.302;2023-03-14T04:28:04;5.2;;;1.9;;
44126;SDS011;29786;50.798;7.302;2023-03-14T04:29:18;3.2;;;1.7;;
44126;SDS011;29786;50.798;7.302;2023-03-14T04:31:46;5.6;;;1.7;;
44126;SDS011;29786;50.798;7.302;2023-03-14T04:33:00;4.3;;;1.5;;
44126;SDS011;29786;50.798;7.302;2023-03-14T04:34:14;4.1;;;1.5;;
44126;SDS011;29786;50.798;7.302;2023-03-14T04:36:43;3.5;;;1.8;;
44126;SDS011;29786;50.798;7.302;2023-03-14T04:37:57;4.7;;;1.4;;
44126;SDS011;29786;50.798;7.302;2023-03-14T04:39:11;4.9;;;1.5;;
44126;SDS011;29786;50.798;7.302;2023-03-14T04:41:39;4.9;;;1.8;;
44126;SDS011;29786;50.798;7.302;2023-03-14T04:42:53;4.2;;;1.4;;
44126;SDS011;29786;50.798;7.302;2023-03-14T04:44:07;2.6;;;1.3;;
44126;SDS011;29786;50.798;7.302;2023-03-14T04:45:22;3.8;;;1.6;;
44126;SDS011;29786;50.798;7.302;2023-03-14T04:47:50;3.1;;;1.5;;
44126;SDS011;29786;50.798;7.302;2023-03-14T04:49:04;4.3;;;1.5;;
44126;SDS011;29786;50.798;7.302;2023-03-14T04:50:18;3.3;;;1.3;;
44126;SDS011;29786;50.798;7.302;2023-03-14T04:52:46;3.2;;;1.4;;
44126;SDS011;29786;50.798;7.302;2023-03-14T04:54:00;3.4;;;1.2;;
44126;SDS011;29786;50.798;7.302;2023-03-14T04:55:15;2.8;;;1.2;;
44126;SDS011;29786;50.798;7.302;2023-03-14T04:57:43;2.9;;;1.1;;
44126;SDS011;29786;50.798;7.302;2023-03-14T04:58:57;3.8;;;1.1;;
44126;SDS011;29786;50.798;7.302;2023-03-14T05:00:11;2.5;;;1.1;;
44126;SDS011;29786;50.798;7.302;2023-03-14T05:02:39;3;;;1.2;;
44126;SDS011;29786;50.798;7.302;2023-03-14T05:03:54;3.6;;;1.3;;
44126;SDS011;29786;50.798;7.302;2023-03-14T05:05:08;3.3;;;1.3;;
44126;SDS011;29786;50.798;7.302;2023-03-14T05:06:27;1.9;;;1.3;;
44126;SDS011;29786;50.798;7.302;2023-03-14T05:08:50;2.3;;;1;;
44126;SDS011;29786;50.798;7.302;2023-03-14T05:10:04;2.7;;;1;;
44126;SDS011;29786;50.798;7.302;2023-03-14T05:11:18;1.5;;;1.1;;
44126;SDS011;29786;50.798;7.302;2023-03-14T05:13:47;2;;;1.1;;
44126;SDS011;29786;50.798;7.302;2023-03-14T05:15:01;0.9;;;0.9;;
44126;SDS011;29786;50.798;7.302;2023-03-14T05:16:15;1.1;;;1;;
44126;SDS011;29786;50.798;7.302;2023-03-14T05:18:43;2.8;;;1.3;;
44126;SDS011;29786;50.798;7.302;2023-03-14T05:19:57;2.6;;;1.3;;
44126;SDS011;29786;50.798;7.302;2023-03-14T05:21:11;1.1;;;1;;
44126;SDS011;29786;50.798;7.302;2023-03-14T05:23:40;1.7;;;1.1;;
44126;SDS011;29786;50.798;7.302;2023-03-14T05:24:54;1.9;;;0.9;;
44126;SDS011;29786;50.798;7.302;2023-03-14T05:26:08;1;;;1;;
44126;SDS011;29786;50.798;7.302;2023-03-14T05:27:22;1.3;;;0.9;;
44126;SDS011;29786;50.798;7.302;2023-03-14T05:29:50;1;;;0.9;;
44126;SDS011;29786;50.798;7.302;2023-03-14T05:31:06;0.9;;;0.8;;
44126;SDS011;29786;50.798;7.302;2023-03-14T05:32:19;1.1;;;0.9;;
44126;SDS011;29786;50.798;7.302;2023-03-14T05:34:47;1.4;;;1;;
44126;SDS011;29786;50.798;7.302;2023-03-14T05:36:01;1.7;;;1.1;;
44126;SDS011;29786;50.798;7.302;2023-03-14T05:37:15;0.8;;;0.8;;
44126;SDS011;29786;50.798;7.302;2023-03-14T05:39:43;1.6;;;0.9;;
44126;SDS011;29786;50.798;7.302;2023-03-14T05:40:58;1.2;;;1;;
44126;SDS011;29786;50.798;7.302;2023-03-14T05:42:12;0.7;;;0.7;;
44126;SDS011;29786;50.798;7.302;2023-03-14T05:43:26;1.1;;;0.9;;
44126;SDS011;29786;50.798;7.302;2023-03-14T05:44:40;1;;;0.8;;
44126;SDS011;29786;50.798;7.302;2023-03-14T05:45:54;1.3;;;1;;
44126;SDS011;29786;50.798;7.302;2023-03-14T05:47:08;1.2;;;0.9;;
44126;SDS011;29786;50.798;7.302;2023-03-14T05:48:22;1.2;;;1;;
44126;SDS011;29786;50.798;7.302;2023-03-14T05:50:54;0.8;;;0.8;;
44126;SDS011;29786;50.798;7.302;2023-03-14T05:52:05;1.5;;;1.2;;
44126;SDS011;29786;50.798;7.302;2023-03-14T05:53:19;0.9;;;0.9;;
44126;SDS011;29786;50.798;7.302;2023-03-14T05:55:50;0.9;;;0.9;;
44126;SDS011;29786;50.798;7.302;2023-03-14T05:57:01;1.1;;;0.9;;
44126;SDS011;29786;50.798;7.302;2023-03-14T05:58:15;1.2;;;1.1;;
44126;SDS011;29786;50.798;7.302;2023-03-14T06:00:44;1.7;;;1.5;;
44126;SDS011;29786;50.798;7.302;2023-03-14T06:01:58;0.9;;;0.9;;
44126;SDS011;29786;50.798;7.302;2023-03-14T06:03:12;2.1;;;1.3;;
44126;SDS011;29786;50.798;7.302;2023-03-14T06:05:40;1.2;;;0.9;;
44126;SDS011;29786;50.798;7.302;2023-03-14T06:06:54;1.2;;;1;;
44126;SDS011;29786;50.798;7.302;2023-03-14T06:08:08;1.4;;;1;;
44126;SDS011;29786;50.798;7.302;2023-03-14T06:09:23;0.8;;;0.8;;
44126;SDS011;29786;50.798;7.302;2023-03-14T06:11:51;1.4;;;1.3;;
44126;SDS011;29786;50.798;7.302;2023-03-14T06:13:05;1.2;;;1.2;;
44126;SDS011;29786;50.798;7.302;2023-03-14T06:14:19;1.4;;;1.1;;
44126;SDS011;29786;50.798;7.302;2023-03-14T06:16:47;1.5;;;0.9;;
44126;SDS011;29786;50.798;7.302;2023-03-14T06:18:02;0.8;;;0.8;;
44126;SDS011;29786;50.798;7.302;2023-03-14T06:19:16;0.8;;;0.8;;
44126;SDS011;29786;50.798;7.302;2023-03-14T06:21:44;0.8;;;0.8;;
44126;SDS011;29786;50.798;7.302;2023-03-14T06:22:58;1.4;;;1.3;;
44126;SDS011;29786;50.798;7.302;2023-03-14T06:24:12;0.9;;;0.8;;
44126;SDS011;29786;50.798;7.302;2023-03-14T06:26:40;1;;;0.9;;
44126;SDS011;29786;50.798;7.302;2023-03-14T06:27:55;0.8;;;0.8;;
44126;SDS011;29786;50.798;7.302;2023-03-14T06:29:09;1.3;;;0.8;;
44126;SDS011;29786;50.798;7.302;2023-03-14T06:30:23;0.9;;;0.9;;
44126;SDS011;29786;50.798;7.302;2023-03-14T06:32:51;1;;;0.9;;
44126;SDS011;29786;50.798;7.302;2023-03-14T06:34:05;1;;;0.9;;
44126;SDS011;29786;50.798;7.302;2023-03-14T06:35:19;0.8;;;0.8;;
44126;SDS011;29786;50.798;7.302;2023-03-14T06:37:48;0.7;;;0.7;;
44126;SDS011;29786;50.798;7.302;2023-03-14T06:39:02;0.7;;;0.7;;
44126;SDS011;29786;50.798;7.302;2023-03-14T06:40:16;1.5;;;1;;
44126;SDS011;29786;50.798;7.302;2023-03-14T06:42:44;1.8;;;0.7;;
44126;SDS011;29786;50.798;7.302;2023-03-14T06:43:58;1;;;1;;
44126;SDS011;29786;50.798;7.302;2023-03-14T06:45:13;1.2;;;0.9;;
44126;SDS011;29786;50.798;7.302;2023-03-14T06:47:41;0.8;;;0.8;;
44126;SDS011;29786;50.798;7.302;2023-03-14T06:48:55;0.8;;;0.8;;
44126;SDS011;29786;50.798;7.302;2023-03-14T06:50:09;0.7;;;0.7;;
44126;SDS011;29786;50.798;7.302;2023-03-14T06:51:23;2;;;0.9;;
44126;SDS011;29786;50.798;7.302;2023-03-14T06:53:51;1.5;;;0.7;;
44126;SDS011;29786;50.798;7.302;2023-03-14T06:55:06;0.7;;;0.7;;
44126;SDS011;29786;50.798;7.302;2023-03-14T06:56:20;0.7;;;0.7;;
44126;SDS011;29786;50.798;7.302;2023-03-14T06:58:48;1.6;;;0.8;;
44126;SDS011;29786;50.798;7.302;2023-03-14T07:00:03;2.3;;;0.9;;
44126;SDS011;29786;50.798;7.302;2023-03-14T07:01:20;0.8;;;0.8;;
44126;SDS011;29786;50.798;7.302;2023-03-14T07:03:44;0.8;;;0.8;;
44126;SDS011;29786;50.798;7.302;2023-03-14T07:04:59;0.7;;;0.7;;
44126;SDS011;29786;50.798;7.302;2023-03-14T07:06:13;1.8;;;0.6;;
44126;SDS011;29786;50.798;7.302;2023-03-14T07:08:41;0.9;;;0.9;;
44126;SDS011;29786;50.798;7.302;2023-03-14T07:09:55;0.9;;;0.9;;
44126;SDS011;29786;50.798;7.302;2023-03-14T07:11:09;1.1;;;0.8;;
44126;SDS011;29786;50.798;7.302;2023-03-14T07:12:23;0.8;;;0.8;;
44126;SDS011;29786;50.798;7.302;2023-03-14T07:14:52;1.3;;;1.1;;
44126;SDS011;29786;50.798;7.302;2023-03-14T07:16:06;0.9;;;0.8;;
44126;SDS011;29786;50.798;7.302;2023-03-14T07:17:20;0.6;;;0.6;;
44126;SDS011;29786;50.798;7.302;2023-03-14T07:19:48;1.2;;;0.8;;
44126;SDS011;29786;50.798;7.302;2023-03-14T07:21:03;0.8;;;0.8;;
44126;SDS011;29786;50.798;7.302;2023-03-14T07:22:16;0.8;;;0.8;;
44126;SDS011;29786;50.798;7.302;2023-03-14T07:24:45;1.5;;;0.8;;
44126;SDS011;29786;50.798;7.302;2023-03-14T07:25:59;0.7;;;0.7;;
44126;SDS011;29786;50.798;7.302;2023-03-14T07:27:13;0.9;;;0.9;;
44126;SDS011;29786;50.798;7.302;2023-03-14T07:29:41;0.8;;;0.8;;
44126;SDS011;29786;50.798;7.302;2023-03-14T07:30:55;2;;;1.2;;
44126;SDS011;29786;50.798;7.302;2023-03-14T07:32:09;0.6;;;0.6;;
44126;SDS011;29786;50.798;7.302;2023-03-14T07:34:38;5.7;;;0.8;;
44126;SDS011;29786;50.798;7.302;2023-03-14T07:35:52;0.9;;;0.9;;
44126;SDS011;29786;50.798;7.302;2023-03-14T07:37:06;1.3;;;1;;
44126;SDS011;29786;50.798;7.302;2023-03-14T07:38:20;1.8;;;0.7;;
44126;SDS011;29786;50.798;7.302;2023-03-14T07:40:48;0.6;;;0.6;;
44126;SDS011;29786;50.798;7.302;2023-03-14T07:42:03;2.2;;;0.8;;
44126;SDS011;29786;50.798;7.302;2023-03-14T07:43:17;0.7;;;0.7;;
44126;SDS011;29786;50.798;7.302;2023-03-14T07:45:45;0.8;;;0.8;;
44126;SDS011;29786;50.798;7.302;2023-03-14T07:46:59;0.7;;;0.7;;
44126;SDS011;29786;50.798;7.302;2023-03-14T07:48:13;0.5;;;0.5;;
44126;SDS011;29786;50.798;7.302;2023-03-14T07:50:42;0.7;;;0.7;;
44126;SDS011;29786;50.798;7.302;2023-03-14T07:51:56;0.7;;;0.7;;
44126;SDS011;29786;50.798;7.302;2023-03-14T07:53:10;0.7;;;0.6;;
44126;SDS011;29786;50.798;7.302;2023-03-14T07:54:24;0.7;;;0.7;;
44126;SDS011;29786;50.798;7.302;2023-03-14T07:56:52;0.8;;;0.6;;
44126;SDS011;29786;50.798;7.302;2023-03-14T07:58:06;0.7;;;0.7;;
44126;SDS011;29786;50.798;7.302;2023-03-14T07:59:20;0.7;;;0.7;;
44126;SDS011;29786;50.798;7.302;2023-03-14T08:01:49;0.9;;;0.6;;
44126;SDS011;29786;50.798;7.302;2023-03-14T08:03:03;0.5;;;0.5;;
44126;SDS011;29786;50.798;7.302;2023-03-14T08:04:17;0.6;;;0.6;;
44126;SDS011;29786;50.798;7.302;2023-03-14T08:06:45;0.8;;;0.8;;
44126;SDS011;29786;50.798;7.302;2023-03-14T08:07:59;0.6;;;0.6;;
44126;SDS011;29786;50.798;7.302;2023-03-14T08:09:13;0.6;;;0.6;;
44126;SDS011;29786;50.798;7.302;2023-03-14T08:11:42;0.5;;;0.5;;
44126;SDS011;29786;50.798;7.302;2023-03-14T08:12:57;0.7;;;0.7;;
44126;SDS011;29786;50.798;7.302;2023-03-14T08:14:10;0.5;;;0.5;;
44126;SDS011;29786;50.798;7.302;2023-03-14T08:16:38;0.5;;;0.5;;
44126;SDS011;29786;50.798;7.302;2023-03-14T08:17:52;0.6;;;0.6;;
44126;SDS011;29786;50.798;7.302;2023-03-14T08:19:07;0.9;;;0.6;;
44126;SDS011;29786;50.798;7.302;2023-03-14T08:20:22;0.6;;;0.6;;
44126;SDS011;29786;50.798;7.302;2023-03-14T08:22:49;0.7;;;0.6;;
44126;SDS011;29786;50.798;7.302;2023-03-14T08:24:03;0.6;;;0.6;;
44126;SDS011;29786;50.798;7.302;2023-03-14T08:25:17;0.6;;;0.6;;
44126;SDS011;29786;50.798;7.302;2023-03-14T08:27:46;0.7;;;0.7;;
44126;SDS011;29786;50.798;7.302;2023-03-14T08:29:00;1.2;;;0.7;;
44126;SDS011;29786;50.798;7.302;2023-03-14T08:30:15;0.8;;;0.8;;
44126;SDS011;29786;50.798;7.302;2023-03-14T08:32:42;0.7;;;0.7;;
44126;SDS011;29786;50.798;7.302;2023-03-14T08:33:58;0.6;;;0.6;;
44126;SDS011;29786;50.798;7.302;2023-03-14T08:35:10;0.5;;;0.5;;
44126;SDS011;29786;50.798;7.302;2023-03-14T08:37:39;0.6;;;0.6;;
44126;SDS011;29786;50.798;7.302;2023-03-14T08:38:53;0.5;;;0.5;;
44126;SDS011;29786;50.798;7.302;2023-03-14T08:40:07;0.5;;;0.5;;
44126;SDS011;29786;50.798;7.302;2023-03-14T08:41:21;0.5;;;0.5;;
44126;SDS011;29786;50.798;7.302;2023-03-14T08:43:49;0.6;;;0.6;;
44126;SDS011;29786;50.798;7.302;2023-03-14T08:45:03;0.6;;;0.5;;
44126;SDS011;29786;50.798;7.302;2023-03-14T08:46:17;0.5;;;0.5;;
44126;SDS011;29786;50.798;7.302;2023-03-14T08:48:46;0.9;;;0.6;;
44126;SDS011;29786;50.798;7.302;2023-03-14T08:50:00;0.6;;;0.6;;
44126;SDS011;29786;50.798;7.302;2023-03-14T08:51:14;0.6;;;0.6;;
44126;SDS011;29786;50.798;7.302;2023-03-14T08:53:42;0.5;;;0.5;;
44126;SDS011;29786;50.798;7.302;2023-03-14T08:54:57;0.6;;;0.6;;
44126;SDS011;29786;50.798;7.302;2023-03-14T08:56:10;0.5;;;0.5;;
44126;SDS011;29786;50.798;7.302;2023-03-14T08:58:39;0.5;;;0.5;;
44126;SDS011;29786;50.798;7.302;2023-03-14T08:59:53;0.4;;;0.4;;
44126;SDS011;29786;50.798;7.302;2023-03-14T09:01:07;0.5;;;0.5;;
44126;SDS011;29786;50.798;7.302;2023-03-14T09:02:22;1.2;;;0.6;;
44126;SDS011;29786;50.798;7.302;2023-03-14T09:04:50;0.8;;;0.4;;
44126;SDS011;29786;50.798;7.302;2023-03-14T09:06:04;0.5;;;0.5;;
44126;SDS011;29786;50.798;7.302;2023-03-14T09:07:18;0.7;;;0.7;;
44126;SDS011;29786;50.798;7.302;2023-03-14T09:09:46;0.6;;;0.6;;
44126;SDS011;29786;50.798;7.302;2023-03-14T09:11:00;0.4;;;0.4;;
44126;SDS011;29786;50.798;7.302;2023-03-14T09:12:14;0.4;;;0.4;;
44126;SDS011;29786;50.798;7.302;2023-03-14T09:14:43;0.5;;;0.5;;
44126;SDS011;29786;50.798;7.302;2023-03-14T09:15:57;1;;;0.5;;
44126;SDS011;29786;50.798;7.302;2023-03-14T09:17:11;0.9;;;0.6;;
44126;SDS011;29786;50.798;7.302;2023-03-14T09:19:39;0.6;;;0.6;;
44126;SDS011;29786;50.798;7.302;2023-03-14T09:20:53;0.5;;;0.5;;
44126;SDS011;29786;50.798;7.302;2023-03-14T09:22:07;0.5;;;0.5;;
44126;SDS011;29786;50.798;7.302;2023-03-14T09:23:22;0.5;;;0.5;;
44126;SDS011;29786;50.798;7.302;2023-03-14T09:25:57;1.5;;;0.9;;
44126;SDS011;29786;50.798;7.302;2023-03-14T09:27:04;2;;;0.7;;
44126;SDS011;29786;50.798;7.302;2023-03-14T09:28:18;1;;;1;;
44126;SDS011;29786;50.798;7.302;2023-03-14T09:30:47;0.6;;;0.6;;
44126;SDS011;29786;50.798;7.302;2023-03-14T09:32:00;0.8;;;0.8;;
44126;SDS011;29786;50.798;7.302;2023-03-14T09:33:15;0.7;;;0.7;;
44126;SDS011;29786;50.798;7.302;2023-03-14T09:35:43;1;;;0.8;;
44126;SDS011;29786;50.798;7.302;2023-03-14T09:36:57;0.9;;;0.9;;
44126;SDS011;29786;50.798;7.302;2023-03-14T09:38:11;0.8;;;0.8;;
44126;SDS011;29786;50.798;7.302;2023-03-14T09:40:39;0.9;;;0.9;;
44126;SDS011;29786;50.798;7.302;2023-03-14T09:41:54;0.9;;;0.9;;
44126;SDS011;29786;50.798;7.302;2023-03-14T09:43:09;0.8;;;0.8;;
44126;SDS011;29786;50.798;7.302;2023-03-14T09:44:26;0.9;;;0.9;;
44126;SDS011;29786;50.798;7.302;2023-03-14T09:46:51;1.4;;;1;;
44126;SDS011;29786;50.798;7.302;2023-03-14T09:48:04;1.1;;;1.1;;
44126;SDS011;29786;50.798;7.302;2023-03-14T09:49:23;2.3;;;1;;
44126;SDS011;29786;50.798;7.302;2023-03-14T09:51:47;1.4;;;1.3;;
44126;SDS011;29786;50.798;7.302;2023-03-14T09:53:02;1.5;;;1.1;;
44126;SDS011;29786;50.798;7.302;2023-03-14T09:54:24;1.4;;;1.2;;
44126;SDS011;29786;50.798;7.302;2023-03-14T09:56:43;1.3;;;1.2;;
44126;SDS011;29786;50.798;7.302;2023-03-14T09:57:59;1.5;;;1.3;;
44126;SDS011;29786;50.798;7.302;2023-03-14T09:59:11;1.1;;;1;;
44126;SDS011;29786;50.798;7.302;2023-03-14T10:01:40;2.2;;;1.1;;
44126;SDS011;29786;50.798;7.302;2023-03-14T10:02:55;1.6;;;1.1;;
44126;SDS011;29786;50.798;7.302;2023-03-14T10:04:10;1.6;;;1.1;;
44126;SDS011;29786;50.798;7.302;2023-03-14T10:05:23;1.3;;;1;;